OAL0048 LGAV-LGSY
Flight info
| Callsign | OAL0048 |
|---|---|
| Flight time | 0h 24m |
| Altitude | 14000 |
| Route | KRO G33 NEVRA Z507 URUDI |
| Aircraft | AT76/M-SDFGIRY/S |
Departure
| Time | 2026-04-16 22:53 |
|---|---|
| Airport | Athens Eleftherios Venizelos International Airport (LGAV) |
Arrival
| Time | 2026-04-16 23:17 |
|---|---|
| Airport | Skiros Airport (LGSY) |
| Time | Latitude | Longitude | Altitude | Speed | Heading |
|---|---|---|---|---|---|
| 2026-04-16 21:49 | 37.94354 | 23.95564 | 300 ft | 0 kts | 215° |
| 2026-04-16 22:38 | 37.94354 | 23.95565 | 300 ft | 1 kts | 215° |
| 2026-04-16 22:39 | 37.94355 | 23.95565 | 300 ft | 1 kts | 215° |
| 2026-04-16 22:39 | 37.94376 | 23.95585 | 298 ft | 7 kts | 217° |
| 2026-04-16 22:39 | 37.94413 | 23.95583 | 300 ft | 1 kts | 125° |
| 2026-04-16 22:39 | 37.94414 | 23.95581 | 298 ft | 0 kts | 125° |
| 2026-04-16 22:40 | 37.94404 | 23.95599 | 299 ft | 5 kts | 126° |
| 2026-04-16 22:40 | 37.94379 | 23.95641 | 298 ft | 7 kts | 127° |
| 2026-04-16 22:40 | 37.94346 | 23.95698 | 297 ft | 9 kts | 127° |
| 2026-04-16 22:40 | 37.94315 | 23.95749 | 296 ft | 6 kts | 133° |
| 2026-04-16 22:41 | 37.94294 | 23.95748 | 296 ft | 3 kts | 210° |
| 2026-04-16 22:41 | 37.94283 | 23.95729 | 296 ft | 2 kts | 217° |
| 2026-04-16 22:41 | 37.94238 | 23.95696 | 296 ft | 10 kts | 211° |
| 2026-04-16 22:41 | 37.94173 | 23.95634 | 298 ft | 13 kts | 217° |
| 2026-04-16 22:42 | 37.94122 | 23.95600 | 297 ft | 8 kts | 184° |
| 2026-04-16 22:42 | 37.94070 | 23.95649 | 294 ft | 11 kts | 146° |
| 2026-04-16 22:42 | 37.93995 | 23.95608 | 294 ft | 13 kts | 217° |
| 2026-04-16 22:42 | 37.93918 | 23.95532 | 293 ft | 15 kts | 219° |
| 2026-04-16 22:43 | 37.93834 | 23.95455 | 293 ft | 15 kts | 215° |
| 2026-04-16 22:43 | 37.93747 | 23.95373 | 294 ft | 16 kts | 217° |
| 2026-04-16 22:43 | 37.93660 | 23.95291 | 295 ft | 16 kts | 217° |
| 2026-04-16 22:43 | 37.93572 | 23.95206 | 296 ft | 16 kts | 217° |
| 2026-04-16 22:44 | 37.93484 | 23.95125 | 296 ft | 16 kts | 217° |
| 2026-04-16 22:44 | 37.93397 | 23.95042 | 295 ft | 16 kts | 216° |
| 2026-04-16 22:44 | 37.93309 | 23.94958 | 296 ft | 16 kts | 218° |
| 2026-04-16 22:44 | 37.93221 | 23.94874 | 296 ft | 16 kts | 217° |
| 2026-04-16 22:45 | 37.93154 | 23.94849 | 296 ft | 10 kts | 154° |
| 2026-04-16 22:45 | 37.93142 | 23.94945 | 295 ft | 15 kts | 67° |
| 2026-04-16 22:45 | 37.93192 | 23.95074 | 290 ft | 18 kts | 58° |
| 2026-04-16 22:45 | 37.93264 | 23.95193 | 286 ft | 10 kts | 37° |
| 2026-04-16 22:46 | 37.93268 | 23.95197 | 286 ft | 0 kts | 37° |
| 2026-04-16 22:52 | 37.93299 | 23.95224 | 286 ft | 27 kts | 33° |
| 2026-04-16 22:52 | 37.93630 | 23.95544 | 277 ft | 91 kts | 35° |
| 2026-04-16 22:52 | 37.94268 | 23.96141 | 283 ft | 133 kts | 36° |
| 2026-04-16 22:52 | 37.95041 | 23.96884 | 615 ft | 142 kts | 35° |
| 2026-04-16 22:53 | 37.95838 | 23.97610 | 1179 ft | 137 kts | 31° |
| 2026-04-16 22:53 | 37.96649 | 23.98245 | 1739 ft | 139 kts | 29° |
| 2026-04-16 22:53 | 37.97519 | 23.98829 | 2016 ft | 151 kts | 25° |
| 2026-04-16 22:53 | 37.98512 | 23.99406 | 2309 ft | 158 kts | 25° |
| 2026-04-16 22:54 | 37.99517 | 23.99986 | 2703 ft | 160 kts | 25° |
| 2026-04-16 22:54 | 38.00549 | 24.00561 | 3063 ft | 163 kts | 25° |
| 2026-04-16 22:54 | 38.01600 | 24.01150 | 3384 ft | 167 kts | 30° |
| 2026-04-16 22:54 | 38.02552 | 24.01984 | 3749 ft | 167 kts | 43° |
| 2026-04-16 22:55 | 38.03316 | 24.03090 | 4111 ft | 168 kts | 56° |
| 2026-04-16 22:55 | 38.03864 | 24.04400 | 4479 ft | 169 kts | 69° |
| 2026-04-16 22:55 | 38.04162 | 24.05844 | 4854 ft | 170 kts | 81° |
| 2026-04-16 22:55 | 38.04197 | 24.07348 | 5206 ft | 172 kts | 94° |
| 2026-04-16 22:56 | 38.03962 | 24.08848 | 5526 ft | 175 kts | 106° |
| 2026-04-16 22:56 | 38.03467 | 24.10262 | 5861 ft | 177 kts | 118° |
| 2026-04-16 22:56 | 38.02745 | 24.11509 | 6202 ft | 180 kts | 130° |
| 2026-04-16 22:56 | 38.01794 | 24.12573 | 6549 ft | 181 kts | 142° |
| 2026-04-16 22:57 | 38.00703 | 24.13379 | 6867 ft | 183 kts | 153° |
| 2026-04-16 22:57 | 37.99516 | 24.13906 | 7209 ft | 183 kts | 163° |
| 2026-04-16 22:57 | 37.98249 | 24.14148 | 7487 ft | 185 kts | 171° |
| 2026-04-16 22:57 | 37.97109 | 24.14752 | 7764 ft | 180 kts | 130° |
| 2026-04-16 22:58 | 37.96419 | 24.16061 | 7961 ft | 180 kts | 132° |
| 2026-04-16 22:58 | 37.95613 | 24.17275 | 8210 ft | 183 kts | 112° |
| 2026-04-16 22:58 | 37.95553 | 24.18881 | 8446 ft | 187 kts | 84° |
| 2026-04-16 22:58 | 37.95754 | 24.20522 | 8721 ft | 189 kts | 84° |
| 2026-04-16 22:59 | 37.96064 | 24.22154 | 8987 ft | 195 kts | 66° |
| 2026-04-16 22:59 | 37.96916 | 24.23515 | 9200 ft | 200 kts | 52° |
| 2026-04-16 22:59 | 37.97853 | 24.24829 | 9473 ft | 202 kts | 51° |
| 2026-04-16 22:59 | 37.98696 | 24.25987 | 9721 ft | 205 kts | 51° |
| 2026-04-16 23:00 | 37.99674 | 24.27310 | 9999 ft | 206 kts | 51° |
| 2026-04-16 23:00 | 38.00667 | 24.28632 | 10240 ft | 208 kts | 50° |
| 2026-04-16 23:00 | 38.01667 | 24.29960 | 10502 ft | 209 kts | 50° |
| 2026-04-16 23:00 | 38.02676 | 24.31293 | 10756 ft | 210 kts | 50° |
| 2026-04-16 23:01 | 38.03693 | 24.32627 | 10996 ft | 211 kts | 50° |
| 2026-04-16 23:01 | 38.04711 | 24.33978 | 11230 ft | 212 kts | 52° |
| 2026-04-16 23:01 | 38.05682 | 24.35390 | 11475 ft | 213 kts | 55° |
| 2026-04-16 23:01 | 38.06583 | 24.36878 | 11729 ft | 213 kts | 59° |
| 2026-04-16 23:02 | 38.07427 | 24.38432 | 11963 ft | 214 kts | 60° |
| 2026-04-16 23:02 | 38.08250 | 24.40007 | 12224 ft | 215 kts | 60° |
| 2026-04-16 23:02 | 38.09089 | 24.41586 | 12461 ft | 216 kts | 60° |
| 2026-04-16 23:02 | 38.09940 | 24.43167 | 12682 ft | 218 kts | 60° |
| 2026-04-16 23:03 | 38.10798 | 24.44759 | 12916 ft | 219 kts | 60° |
| 2026-04-16 23:03 | 38.11661 | 24.46364 | 13153 ft | 220 kts | 60° |
| 2026-04-16 23:03 | 38.12529 | 24.47977 | 13379 ft | 222 kts | 59° |
| 2026-04-16 23:03 | 38.13705 | 24.49256 | 13572 ft | 231 kts | 23° |
| 2026-04-16 23:04 | 38.15290 | 24.49430 | 13776 ft | 231 kts | 347° |
| 2026-04-16 23:04 | 38.16854 | 24.48924 | 13884 ft | 234 kts | 343° |
| 2026-04-16 23:04 | 38.18473 | 24.48462 | 13942 ft | 243 kts | 348° |
| 2026-04-16 23:04 | 38.20180 | 24.48205 | 13975 ft | 252 kts | 356° |
| 2026-04-16 23:05 | 38.21958 | 24.48227 | 13990 ft | 259 kts | 4° |
| 2026-04-16 23:05 | 38.23780 | 24.48430 | 14001 ft | 266 kts | 6° |
| 2026-04-16 23:05 | 38.25644 | 24.48682 | 14001 ft | 271 kts | 6° |
| 2026-04-16 23:05 | 38.27535 | 24.48931 | 13998 ft | 276 kts | 5° |
| 2026-04-16 23:06 | 38.29457 | 24.49141 | 13992 ft | 279 kts | 4° |
| 2026-04-16 23:06 | 38.31399 | 24.49337 | 13990 ft | 281 kts | 4° |
| 2026-04-16 23:06 | 38.33327 | 24.49529 | 13998 ft | 282 kts | 4° |
| 2026-04-16 23:06 | 38.35288 | 24.49723 | 14003 ft | 283 kts | 4° |
| 2026-04-16 23:07 | 38.37257 | 24.49918 | 14003 ft | 284 kts | 4° |
| 2026-04-16 23:07 | 38.39235 | 24.50114 | 14002 ft | 285 kts | 4° |
| 2026-04-16 23:07 | 38.41213 | 24.50308 | 14003 ft | 285 kts | 4° |
| 2026-04-16 23:07 | 38.43195 | 24.50506 | 14006 ft | 286 kts | 4° |
| 2026-04-16 23:08 | 38.45176 | 24.50704 | 14003 ft | 286 kts | 4° |
| 2026-04-16 23:08 | 38.47161 | 24.50895 | 14010 ft | 286 kts | 4° |
| 2026-04-16 23:08 | 38.49147 | 24.51088 | 14011 ft | 286 kts | 4° |
| 2026-04-16 23:08 | 38.51137 | 24.51287 | 14013 ft | 287 kts | 4° |
| 2026-04-16 23:09 | 38.53129 | 24.51488 | 13908 ft | 291 kts | 4° |
| 2026-04-16 23:09 | 38.55205 | 24.51699 | 13414 ft | 307 kts | 4° |
| 2026-04-16 23:09 | 38.57349 | 24.51911 | 13212 ft | 309 kts | 4° |
| 2026-04-16 23:09 | 38.59493 | 24.52119 | 13099 ft | 308 kts | 4° |
| 2026-04-16 23:10 | 38.61631 | 24.52289 | 12983 ft | 307 kts | 1° |
| 2026-04-16 23:10 | 38.63761 | 24.52160 | 12733 ft | 309 kts | 354° |
| 2026-04-16 23:10 | 38.65934 | 24.51859 | 12246 ft | 319 kts | 353° |
| 2026-04-16 23:10 | 38.68147 | 24.51571 | 11939 ft | 320 kts | 355° |
| 2026-04-16 23:11 | 38.69619 | 24.51424 | 11643 ft | 322 kts | 356° |
| 2026-04-16 23:11 | 38.71845 | 24.51250 | 11361 ft | 319 kts | 358° |
| 2026-04-16 23:11 | 38.74051 | 24.51072 | 11094 ft | 316 kts | 357° |
| 2026-04-16 23:11 | 38.76240 | 24.50877 | 10827 ft | 314 kts | 357° |
| 2026-04-16 23:12 | 38.78410 | 24.50689 | 10561 ft | 311 kts | 358° |
| 2026-04-16 23:12 | 38.80543 | 24.50503 | 10298 ft | 304 kts | 358° |
| 2026-04-16 23:12 | 38.82622 | 24.50440 | 9951 ft | 298 kts | 5° |
| 2026-04-16 23:12 | 38.84583 | 24.50651 | 7925 ft | 290 kts | 6° |
| 2026-04-16 23:13 | 38.86663 | 24.51186 | 6426 ft | 293 kts | 13° |
| 2026-04-16 23:13 | 38.88503 | 24.51780 | 5932 ft | 262 kts | 14° |
| 2026-04-16 23:13 | 38.90336 | 24.52316 | 5382 ft | 274 kts | 8° |
| 2026-04-16 23:13 | 38.92113 | 24.52803 | 3358 ft | 290 kts | 12° |
| 2026-04-16 23:14 | 38.93965 | 24.53298 | 2636 ft | 237 kts | 11° |
| 2026-04-16 23:14 | 38.95184 | 24.53906 | 2633 ft | 194 kts | 25° |
| 2026-04-16 23:14 | 38.96362 | 24.54580 | 2491 ft | 178 kts | 15° |
| 2026-04-16 23:14 | 38.97528 | 24.54621 | 2262 ft | 164 kts | 354° |
| 2026-04-16 23:15 | 38.99712 | 24.53987 | 1618 ft | 161 kts | 340° |
| 2026-04-16 23:15 | 39.00550 | 24.53059 | 1251 ft | 159 kts | 303° |
| 2026-04-16 23:15 | 39.01071 | 24.51908 | 1212 ft | 135 kts | 296° |
| 2026-04-16 23:16 | 39.01387 | 24.50762 | 879 ft | 144 kts | 279° |
| 2026-04-16 23:16 | 39.01318 | 24.49490 | 625 ft | 140 kts | 251° |
| 2026-04-16 23:16 | 39.00698 | 24.48589 | 393 ft | 133 kts | 209° |
| 2026-04-16 23:16 | 38.99878 | 24.48331 | 231 ft | 113 kts | 178° |
| 2026-04-16 23:17 | 38.99126 | 24.48395 | 109 ft | 110 kts | 176° |
| 2026-04-16 23:17 | 38.98367 | 24.48448 | 64 ft | 109 kts | 176° |
| 2026-04-16 23:17 | 38.97686 | 24.48499 | 34 ft | 58 kts | 180° |
| 2026-04-16 23:17 | 38.97556 | 24.48525 | 33 ft | 4 kts | 98° |
| 2026-04-16 23:18 | 38.97566 | 24.48581 | 30 ft | 10 kts | 75° |
| 2026-04-16 23:18 | 38.97558 | 24.48682 | 27 ft | 12 kts | 144° |
| 2026-04-16 23:18 | 38.97484 | 24.48692 | 27 ft | 9 kts | 176° |
| 2026-04-16 23:18 | 38.97421 | 24.48697 | 27 ft | 9 kts | 176° |
| 2026-04-16 23:19 | 38.97360 | 24.48702 | 28 ft | 9 kts | 174° |
| 2026-04-16 23:19 | 38.97328 | 24.48757 | 29 ft | 9 kts | 93° |
| 2026-04-16 23:19 | 38.97331 | 24.48837 | 29 ft | 9 kts | 87° |
| 2026-04-16 23:19 | 38.97319 | 24.48902 | 29 ft | 4 kts | 168° |
| 2026-04-16 23:20 | 38.97285 | 24.48902 | 30 ft | 6 kts | 179° |
| 2026-04-16 23:20 | 38.97263 | 24.48925 | 30 ft | 4 kts | 105° |
| 2026-04-16 23:20 | 38.97277 | 24.48956 | 30 ft | 5 kts | 51° |
| 2026-04-16 23:20 | 38.97280 | 24.48959 | 30 ft | 0 kts | 51° |